KCGC

Crystal River-Captain Tom Davis Field Airport

Crystal River, Florida, USA
METAR KCGC 211435Z AUTO 10006KT 10SM OVC010 25/22 A3009 RMK AO2
Observed Flight Rules
May-21 @ 14:35 UTC (23 minutes ago) Marginal Visual Flight Rules
Wind Visibility Clouds
100° at 6 knots 10 miles
  • Overcast at 1,000' AGL
Temperatures Readings
Current 25°C / 77°F
Dewpoint 22°C / 72°F
Humidity 83%
Altimeter 30.09" Hg
Pressure 1019 hPa
Elevation 3
METAR KCGC 211435Z AUTO 10006KT 10SM OVC010 25/22 A3009 RMK AO2
Observed Flight Rules
May-21 @ 14:35 UTC
(23 minutes ago)
MVFR
Wind Visibility
100° at 6 knots 10 miles
Clouds
  • Overcast at 1,000' AGL
Temperature Dewpoint
25°C / 77°F 22°C / 72°F
Humidity Altimeter Pressure
83% 30.09" Hg 1019 hPa